createdAt,value
2022-08-19T00:04:51.861Z,11.68
2022-08-19T00:09:53.705Z,10.68
2022-08-19T00:14:58.377Z,9.85
2022-08-19T00:20:00.086Z,10.30
2022-08-19T00:25:02.207Z,9.85
2022-08-19T00:30:07.055Z,10.65
2022-08-19T00:35:09.144Z,10.45
2022-08-19T00:40:12.343Z,9.38
2022-08-19T00:45:25.388Z,12.38
2022-08-19T00:50:26.997Z,12.75
2022-08-19T00:55:29.555Z,13.40
2022-08-19T01:00:32.257Z,14.88
2022-08-19T01:05:34.113Z,14.70
2022-08-19T01:10:41.632Z,15.82
2022-08-19T01:15:47.487Z,15.60
2022-08-19T01:20:49.322Z,14.60
2022-08-19T01:25:53.317Z,13.27
2022-08-19T01:30:56.303Z,15.38
2022-08-19T01:36:06.738Z,16.33
2022-08-19T01:41:10.842Z,17.05
2022-08-19T01:46:12.928Z,18.95
2022-08-19T01:51:14.880Z,16.90
2022-08-19T01:56:17.260Z,16.20
2022-08-19T02:01:19.057Z,19.27
2022-08-19T02:06:20.816Z,19.80
2022-08-19T02:11:31.990Z,19.95
2022-08-19T02:16:34.161Z,19.25
2022-08-19T02:21:35.978Z,18.73
2022-08-19T02:26:37.550Z,19.35
2022-08-19T02:31:39.204Z,20.20
2022-08-19T02:36:42.503Z,20.20
2022-08-19T02:41:44.478Z,20.23
2022-08-19T02:46:48.214Z,17.50
2022-08-19T02:51:49.776Z,17.92
2022-08-19T02:56:51.375Z,15.70
2022-08-19T03:01:53.191Z,16.08
2022-08-19T03:06:56.755Z,15.77
2022-08-19T03:12:00.098Z,17.75
2022-08-19T03:17:01.950Z,17.63
2022-08-19T03:22:03.721Z,18.13
2022-08-19T03:27:05.362Z,19.10
2022-08-19T03:32:07.229Z,19.55
2022-08-19T03:37:12.711Z,17.77
2022-08-19T03:42:32.155Z,19.35
2022-08-19T03:47:35.204Z,20.08
2022-08-19T03:52:36.775Z,19.60
2022-08-19T03:57:38.352Z,16.63
2022-08-19T04:02:40.126Z,17.63
2022-08-19T04:07:41.867Z,18.52
2022-08-19T04:12:43.422Z,19.55
2022-08-19T04:17:44.981Z,20.33
2022-08-19T04:22:46.645Z,21.20
2022-08-19T04:27:48.231Z,22.95
2022-08-19T04:32:49.783Z,20.83
2022-08-19T04:37:51.365Z,18.73
2022-08-19T04:42:53.165Z,18.90
2022-08-19T04:47:58.744Z,17.55
2022-08-19T04:53:18.065Z,16.88
2022-08-19T04:58:19.631Z,18.23
2022-08-19T05:03:21.700Z,17.35
2022-08-19T05:08:31.404Z,18.67
2022-08-19T05:13:33.372Z,19.67
2022-08-19T05:18:34.931Z,17.48
2022-08-19T05:23:36.584Z,16.63
2022-08-19T05:28:38.133Z,16.67
2022-08-19T05:33:39.954Z,19.00
2022-08-19T05:38:41.499Z,18.63
2022-08-19T05:43:43.037Z,20.33
2022-08-19T05:48:45.191Z,22.02
2022-08-19T05:53:46.730Z,23.90
2022-08-19T05:58:48.296Z,25.05
2022-08-19T06:03:49.886Z,22.42
2022-08-19T06:08:51.621Z,24.15
2022-08-19T06:13:59.357Z,23.45
2022-08-19T06:19:07.309Z,24.35
2022-08-19T06:24:12.225Z,23.80
2022-08-19T06:29:23.498Z,22.95
2022-08-19T06:34:27.033Z,21.70
2022-08-19T06:39:31.813Z,21.38
2022-08-19T06:44:36.343Z,20.67
2022-08-19T06:49:44.323Z,19.92
2022-08-19T06:54:55.672Z,20.38
2022-08-19T06:59:57.804Z,20.33
2022-08-19T07:04:59.361Z,19.02
2022-08-19T07:10:02.897Z,19.15
2022-08-19T07:15:07.240Z,19.60
2022-08-19T07:20:09.660Z,19.77
2022-08-19T07:25:12.055Z,18.70
2022-08-19T07:30:14.126Z,16.77
2022-08-19T07:35:15.776Z,17.27
2022-08-19T07:40:17.539Z,17.00
2022-08-19T07:45:19.192Z,16.33
2022-08-19T07:50:22.060Z,14.70
2022-08-19T07:55:41.105Z,16.10
2022-08-19T08:00:48.710Z,14.95
2022-08-19T08:05:50.285Z,16.45
2022-08-19T08:10:51.886Z,16.08
2022-08-19T08:15:57.799Z,15.52
2022-08-19T08:21:00.649Z,16.88
2022-08-19T08:26:02.207Z,17.35
2022-08-19T08:31:03.871Z,14.05
2022-08-19T08:36:12.655Z,16.50
2022-08-19T08:41:43.702Z,15.00
2022-08-19T08:47:10.259Z,14.35
2022-08-19T08:52:22.579Z,15.13
2022-08-19T08:57:40.729Z,18.67
2022-08-19T09:02:43.339Z,20.38
2022-08-19T09:07:58.450Z,19.75
2022-08-19T09:13:26.032Z,20.80
2022-08-19T09:18:49.409Z,21.70
2022-08-19T09:23:52.400Z,22.92
2022-08-19T09:28:54.719Z,20.52
2022-08-19T09:33:57.254Z,20.20
2022-08-19T09:38:58.844Z,20.92
2022-08-19T09:44:01.057Z,20.70
2022-08-19T09:49:02.984Z,21.13
2022-08-19T09:54:11.166Z,18.85
2022-08-19T09:59:16.059Z,20.17
2022-08-19T10:04:20.614Z,19.63
2022-08-19T10:09:26.396Z,18.38
2022-08-19T10:14:36.424Z,14.40
2022-08-19T10:19:38.074Z,14.38
2022-08-19T10:24:39.750Z,12.32
2022-08-19T10:29:46.737Z,14.48
2022-08-19T10:34:49.187Z,10.02
2022-08-19T10:39:51.678Z,9.93
2022-08-19T10:44:53.927Z,10.60
2022-08-19T10:49:56.516Z,10.85
2022-08-19T10:54:58.077Z,9.52
2022-08-19T10:59:59.648Z,10.50
2022-08-19T11:05:04.973Z,10.85
2022-08-19T11:10:20.847Z,9.23
2022-08-19T11:15:23.161Z,10.00
2022-08-19T11:20:24.736Z,8.73
2022-08-19T11:25:26.324Z,10.55
2022-08-19T11:30:27.929Z,10.32
2022-08-19T11:35:29.537Z,10.00
2022-08-19T11:40:31.181Z,11.30
2022-08-19T11:45:32.765Z,10.20
2022-08-19T11:50:34.418Z,9.00
2022-08-19T11:55:39.297Z,7.80
2022-08-19T12:00:45.784Z,6.70
2022-08-19T12:05:48.281Z,7.57
2022-08-19T12:10:49.872Z,8.70
2022-08-19T12:15:51.403Z,8.30
2022-08-19T12:20:54.598Z,7.85
2022-08-19T12:25:59.170Z,8.95
2022-08-19T12:31:00.695Z,8.98
2022-08-19T12:36:05.075Z,7.28
2022-08-19T12:41:07.672Z,7.15
2022-08-19T12:46:10.846Z,7.03
2022-08-19T12:51:17.544Z,6.70
2022-08-19T12:56:22.377Z,6.68
2022-08-19T13:01:24.914Z,6.00
2022-08-19T13:06:27.452Z,5.97
2022-08-19T13:11:29.081Z,5.18
2022-08-19T13:16:31.045Z,6.10
2022-08-19T13:21:32.678Z,6.53
2022-08-19T13:26:34.621Z,9.18
2022-08-19T13:31:37.452Z,7.82
2022-08-19T13:36:39.487Z,6.15
2022-08-19T13:41:45.725Z,6.07
2022-08-19T13:46:49.185Z,5.72
2022-08-19T13:51:55.552Z,5.75
2022-08-19T13:56:57.099Z,5.90
2022-08-19T14:02:00.367Z,5.90
2022-08-19T14:07:02.064Z,6.30
2022-08-19T14:12:04.217Z,6.75
2022-08-19T14:17:09.645Z,7.32
2022-08-19T14:22:13.813Z,6.72
2022-08-19T14:27:16.098Z,6.32
2022-08-19T14:32:17.700Z,5.75
2022-08-19T14:37:19.372Z,6.82
2022-08-19T14:42:20.968Z,6.90
2022-08-19T14:47:22.525Z,6.47
2022-08-19T14:52:24.702Z,6.10
2022-08-19T14:57:26.292Z,6.22
2022-08-19T15:02:35.023Z,6.68
2022-08-19T15:07:38.214Z,5.38
2022-08-19T15:12:40.282Z,5.00
2022-08-19T15:17:46.063Z,4.32
2022-08-19T15:22:48.858Z,3.38
2022-08-19T15:27:50.635Z,3.28
2022-08-19T15:32:52.525Z,3.10
2022-08-19T15:37:55.209Z,2.90
2022-08-19T15:42:57.135Z,2.55
2022-08-19T15:48:03.409Z,3.20
2022-08-19T15:53:08.215Z,3.35
2022-08-19T15:58:28.047Z,3.55
2022-08-19T16:03:31.012Z,2.53
2022-08-19T16:08:32.581Z,3.00
2022-08-19T16:13:51.881Z,2.30
2022-08-19T16:18:53.468Z,2.20
2022-08-19T16:23:55.034Z,2.75
2022-08-19T16:28:58.246Z,2.65
2022-08-19T16:34:00.198Z,2.88
2022-08-19T16:39:02.056Z,2.58
2022-08-19T16:44:05.678Z,2.22
2022-08-19T16:49:08.999Z,2.35
2022-08-19T16:54:10.922Z,2.40
2022-08-19T16:59:12.741Z,2.15
2022-08-19T17:04:14.325Z,2.30
2022-08-19T17:09:16.739Z,1.77
2022-08-19T17:14:27.481Z,1.33
2022-08-19T17:19:29.062Z,2.10
2022-08-19T17:24:30.649Z,1.60
2022-08-19T17:29:33.603Z,1.45
2022-08-19T17:34:35.182Z,1.60
2022-08-19T17:39:37.209Z,1.55
2022-08-19T17:44:41.281Z,1.20
2022-08-19T17:49:43.006Z,1.85
2022-08-19T17:54:45.643Z,1.98
2022-08-19T17:59:47.267Z,2.20
2022-08-19T18:04:50.402Z,2.03
2022-08-19T18:09:52.717Z,2.10
2022-08-19T18:14:54.487Z,2.90
2022-08-19T18:19:56.245Z,2.63
2022-08-19T18:24:58.667Z,2.10
2022-08-19T18:30:00.463Z,2.00
2022-08-19T18:35:05.692Z,1.90
2022-08-19T18:40:10.493Z,2.40
2022-08-19T18:45:12.717Z,2.92
2022-08-19T18:50:14.329Z,2.42
2022-08-19T18:55:15.900Z,2.45
2022-08-19T19:00:17.490Z,2.60
2022-08-19T19:05:19.085Z,2.22
2022-08-19T19:10:20.753Z,2.45
2022-08-19T19:15:22.510Z,2.22
2022-08-19T19:20:24.060Z,2.28
2022-08-19T19:25:50.223Z,2.45
2022-08-19T19:30:54.097Z,3.10
2022-08-19T19:35:55.664Z,2.13
2022-08-19T19:40:57.338Z,2.33
2022-08-19T19:45:58.879Z,2.47
2022-08-19T19:51:00.441Z,2.45
2022-08-19T19:56:04.386Z,2.22
2022-08-19T20:01:09.780Z,2.33
2022-08-19T20:06:13.714Z,1.90
2022-08-19T20:11:30.552Z,1.80
2022-08-19T20:16:33.190Z,2.25
2022-08-19T20:21:35.290Z,2.47
2022-08-19T20:26:36.977Z,2.17
2022-08-19T20:31:46.594Z,1.80
2022-08-19T20:36:59.604Z,2.20
2022-08-19T20:42:01.166Z,2.05
2022-08-19T20:47:03.935Z,2.20
2022-08-19T20:52:05.960Z,2.42
2022-08-19T20:57:07.668Z,1.90
2022-08-19T21:02:09.313Z,1.70
2022-08-19T21:07:11.007Z,1.55
2022-08-19T21:12:13.101Z,1.63
2022-08-19T21:17:14.709Z,1.33
2022-08-19T21:22:16.315Z,1.58
2022-08-19T21:27:17.880Z,1.40
2022-08-19T21:32:19.688Z,1.10
2022-08-19T21:37:25.009Z,1.45
2022-08-19T21:42:27.682Z,2.10
2022-08-19T21:47:29.236Z,1.88
2022-08-19T21:52:31.089Z,1.85
2022-08-19T21:57:32.730Z,2.38
2022-08-19T22:02:34.320Z,1.75
2022-08-19T22:07:36.139Z,2.53
2022-08-19T22:12:39.330Z,2.15
2022-08-19T22:17:53.298Z,2.28
2022-08-19T22:22:58.089Z,1.92
2022-08-19T22:28:05.802Z,2.47
2022-08-19T22:33:10.408Z,2.78
2022-08-19T22:38:12.727Z,2.28
2022-08-19T22:43:32.342Z,2.22
2022-08-19T22:48:35.032Z,3.63
2022-08-19T22:53:38.812Z,3.30
2022-08-19T22:58:40.523Z,3.95
2022-08-19T23:03:42.621Z,4.75
2022-08-19T23:08:44.276Z,4.47
2022-08-19T23:13:45.829Z,4.68
2022-08-19T23:18:47.441Z,4.68
2022-08-19T23:23:48.999Z,4.03
2022-08-19T23:28:50.565Z,4.32
2022-08-19T23:33:52.237Z,4.13
2022-08-19T23:38:53.895Z,3.03
2022-08-19T23:43:55.630Z,3.00
2022-08-19T23:49:00.728Z,2.75
2022-08-19T23:54:02.278Z,2.92
2022-08-19T23:59:03.842Z,3.38
